Time;durP1;ratioP1;P1;durP2;ratioP2;P2;SDS_P1;SDS_P2;PMS_P1;PMS_P2;Temp;Humidity;BMP_temperature;BMP_pressure;BME280_temperature;BME280_humidity;BME280_pressure;Samples;Min_cycle;Max_cycle;Signal;HPM_P1;HPM_P2
2021/07/02 00:02:01;;;;;;;7.60;4.90;;;19.70;65.90;;;;;;5032262;28;20203;-61
2021/07/02 00:04:27;;;;;;;6.80;4.70;;;19.70;65.90;;;;;;5031452;28;20172;-61
2021/07/02 00:06:52;;;;;;;5.72;3.90;;;19.70;65.90;;;;;;5033061;28;20199;-61
2021/07/02 00:09:18;;;;;;;5.28;4.22;;;19.70;65.90;;;;;;5035905;28;20175;-61
2021/07/02 00:11:43;;;;;;;6.45;4.47;;;19.70;65.90;;;;;;5034819;28;20199;-61
2021/07/02 00:14:09;;;;;;;5.82;4.20;;;19.70;65.90;;;;;;5036114;28;20642;-61
2021/07/02 00:16:35;;;;;;;6.32;4.65;;;19.70;65.90;;;;;;5035529;28;20216;-61
2021/07/02 00:19:00;;;;;;;5.38;4.32;;;19.70;65.90;;;;;;5034997;28;20650;-61
2021/07/02 00:21:26;;;;;;;5.13;4.15;;;19.70;65.90;;;;;;5035105;28;20228;-61
2021/07/02 00:23:52;;;;;;;7.47;4.13;;;19.70;65.90;;;;;;5035374;28;20321;-61
2021/07/02 00:26:17;;;;;;;6.45;4.50;;;19.70;65.90;;;;;;5034715;28;20688;-61
2021/07/02 00:28:46;;;;;;;5.25;4.50;;;19.70;65.90;;;;;;5035360;28;20180;-61
2021/07/02 00:31:11;;;;;;;6.75;4.40;;;19.70;65.90;;;;;;5034346;28;20225;-60
2021/07/02 00:33:37;;;;;;;4.95;4.38;;;19.70;65.90;;;;;;5034341;28;20576;-60
2021/07/02 00:36:03;;;;;;;6.15;4.50;;;19.70;66.00;;;;;;5035213;28;20305;-62
2021/07/02 00:38:28;;;;;;;5.45;4.22;;;19.70;66.00;;;;;;5035435;28;20172;-61
2021/07/02 00:40:54;;;;;;;5.35;4.45;;;19.70;66.00;;;;;;5034239;28;20580;-61
2021/07/02 00:43:19;;;;;;;6.35;4.72;;;19.60;65.90;;;;;;5035115;28;20179;-61
2021/07/02 00:45:45;;;;;;;5.28;3.90;;;19.70;66.00;;;;;;5034819;28;20180;-60
2021/07/02 00:48:10;;;;;;;8.25;4.32;;;19.70;66.00;;;;;;5034658;28;20176;-61
2021/07/02 00:50:36;;;;;;;5.18;4.57;;;19.70;66.00;;;;;;5034739;28;20176;-61
2021/07/02 00:53:04;;;;;;;4.13;3.72;;;19.60;65.90;;;;;;5035280;28;20273;-61
2021/07/02 00:55:29;;;;;;;5.38;4.07;;;19.70;66.00;;;;;;5034270;28;20267;-61
2021/07/02 00:57:55;;;;;;;5.75;3.88;;;19.70;66.00;;;;;;5035117;28;20258;-61
2021/07/02 01:00:20;;;;;;;5.35;4.28;;;19.70;66.00;;;;;;5016579;28;20674;-61
2021/07/02 01:02:46;;;;;;;5.55;4.18;;;19.70;66.00;;;;;;5034504;28;20171;-61
2021/07/02 01:05:12;;;;;;;5.68;4.45;;;19.70;66.00;;;;;;5034724;28;20645;-61
2021/07/02 01:07:39;;;;;;;4.53;4.00;;;19.60;66.00;;;;;;5034071;28;20180;-61
2021/07/02 01:10:05;;;;;;;5.15;4.28;;;19.70;66.00;;;;;;5017338;28;20191;-62
2021/07/02 01:12:30;;;;;;;5.53;4.38;;;19.70;66.00;;;;;;5034347;28;20168;-61
2021/07/02 01:14:56;;;;;;;6.22;4.38;;;19.60;65.90;;;;;;5033882;28;20263;-61
2021/07/02 01:17:21;;;;;;;4.70;3.92;;;19.60;65.90;;;;;;5034537;28;20537;-61
2021/07/02 01:19:48;;;;;;;4.45;4.00;;;19.70;66.00;;;;;;5033366;28;20266;-62
2021/07/02 01:22:19;;;;;;;4.47;3.70;;;19.60;66.00;;;;;;5033611;28;20624;-62
2021/07/02 01:24:45;;;;;;;4.60;3.60;;;19.60;66.00;;;;;;5034241;28;20167;-61
2021/07/02 01:27:11;;;;;;;4.32;3.75;;;19.60;66.00;;;;;;5034427;28;20532;-61
2021/07/02 01:29:36;;;;;;;6.30;3.88;;;19.60;66.00;;;;;;5015740;28;20176;-61
2021/07/02 01:32:02;;;;;;;4.38;3.70;;;19.60;66.00;;;;;;5034207;28;20214;-62
2021/07/02 01:34:27;;;;;;;5.18;4.00;;;19.60;65.90;;;;;;5034463;28;20589;-61
2021/07/02 01:36:53;;;;;;;4.40;4.00;;;19.60;66.00;;;;;;5033357;28;20179;-61
2021/07/02 01:39:18;;;;;;;5.00;3.47;;;19.60;66.00;;;;;;5034119;28;20180;-61
2021/07/02 01:41:44;;;;;;;5.88;4.20;;;19.60;65.90;;;;;;5033831;28;20215;-61
2021/07/02 02:11:09;;;;;;;5.70;4.65;;;19.60;66.00;;;;;;5032490;28;20763;-60
2021/07/02 02:13:34;;;;;;;4.90;4.18;;;19.50;65.90;;;;;;5033297;28;20540;-61
2021/07/02 02:16:00;;;;;;;4.25;3.85;;;19.60;66.00;;;;;;5033687;28;20626;-61
2021/07/02 02:18:25;;;;;;;5.07;4.13;;;19.60;66.00;;;;;;5032800;28;20164;-61
2021/07/02 02:20:51;;;;;;;4.65;4.10;;;19.60;66.00;;;;;;5033120;28;20207;-61
2021/07/02 02:23:16;;;;;;;4.88;4.38;;;19.60;66.00;;;;;;5033520;28;20207;-61
2021/07/02 02:25:42;;;;;;;4.53;4.10;;;19.60;66.00;;;;;;5032336;28;20214;-62
2021/07/02 02:28:07;;;;;;;5.25;4.15;;;19.60;66.00;;;;;;5033166;28;20591;-61
2021/07/02 02:30:35;;;;;;;5.90;4.00;;;19.60;66.00;;;;;;5032359;28;20689;-61
2021/07/02 02:33:04;;;;;;;5.63;4.10;;;19.50;66.00;;;;;;5032894;28;20184;-61
2021/07/02 02:35:29;;;;;;;6.25;4.53;;;19.50;66.00;;;;;;5033170;28;20262;-61
2021/07/02 02:37:55;;;;;;;4.22;3.75;;;19.50;65.90;;;;;;5033040;28;20254;-61
2021/07/02 02:40:20;;;;;;;4.40;3.97;;;19.50;66.00;;;;;;5032442;28;20199;-61
2021/07/02 02:42:46;;;;;;;4.90;4.15;;;19.50;66.00;;;;;;5032615;28;20207;-61
2021/07/02 02:45:12;;;;;;;4.30;3.78;;;19.50;66.00;;;;;;5033516;28;20174;-61
2021/07/02 02:47:40;;;;;;;4.80;4.32;;;19.60;66.00;;;;;;5032255;28;20175;-61
2021/07/02 02:50:06;;;;;;;5.10;4.43;;;19.50;66.10;;;;;;5031958;28;20191;-61
2021/07/02 02:52:32;;;;;;;5.28;4.10;;;19.50;66.00;;;;;;5032492;28;20282;-61
2021/07/02 02:54:57;;;;;;;6.75;4.25;;;19.50;66.00;;;;;;5032389;28;20175;-61
2021/07/02 02:57:22;;;;;;;4.45;4.05;;;19.50;66.00;;;;;;5032820;28;20658;-61
2021/07/02 02:59:48;;;;;;;4.35;3.95;;;19.50;66.00;;;;;;5032081;28;20626;-61
2021/07/02 03:02:13;;;;;;;5.43;4.93;;;19.50;66.00;;;;;;5032805;28;20211;-61
2021/07/02 03:04:39;;;;;;;12.02;4.65;;;19.50;66.00;;;;;;5032628;28;20168;-63
2021/07/02 03:07:05;;;;;;;4.60;4.20;;;19.50;66.00;;;;;;5032024;28;20208;-61
2021/07/02 03:09:33;;;;;;;4.47;3.60;;;19.50;66.00;;;;;;5032366;28;20175;-62
2021/07/02 03:11:59;;;;;;;4.50;4.10;;;19.50;66.00;;;;;;5032558;28;20219;-61
2021/07/02 03:14:24;;;;;;;4.65;4.25;;;19.50;66.00;;;;;;5032075;28;20657;-60
2021/07/02 03:16:50;;;;;;;5.50;3.80;;;19.50;66.00;;;;;;5032459;28;20176;-62
2021/07/02 03:19:15;;;;;;;4.88;4.20;;;19.50;66.00;;;;;;5033131;28;20175;-61
2021/07/02 03:21:41;;;;;;;5.95;4.20;;;19.50;66.00;;;;;;5031537;28;20306;-61
2021/07/02 03:24:07;;;;;;;4.57;4.03;;;19.50;66.00;;;;;;5032657;28;20168;-61
2021/07/02 03:26:32;;;;;;;4.90;4.30;;;19.50;66.00;;;;;;5032350;28;20175;-61
2021/07/02 03:28:58;;;;;;;4.30;3.83;;;19.50;66.00;;;;;;5031718;28;20176;-61
2021/07/02 03:31:24;;;;;;;8.23;4.50;;;19.50;66.00;;;;;;5032658;28;20172;-63
2021/07/02 03:33:49;;;;;;;4.30;3.90;;;19.50;66.00;;;;;;5032245;28;20183;-61
2021/07/02 03:36:15;;;;;;;4.82;4.38;;;19.50;66.00;;;;;;5032335;28;20183;-61
2021/07/02 03:38:40;;;;;;;4.50;4.10;;;19.50;66.00;;;;;;5032308;28;20180;-61
2021/07/02 03:41:06;;;;;;;4.97;4.47;;;19.50;66.00;;;;;;5032222;28;20661;-61
2021/07/02 03:43:32;;;;;;;4.90;4.40;;;19.50;66.00;;;;;;5035619;28;20180;-61
2021/07/02 03:45:57;;;;;;;5.22;4.18;;;19.50;66.00;;;;;;5036331;28;20662;-61
2021/07/02 03:48:23;;;;;;;5.78;4.57;;;19.50;66.00;;;;;;5036187;28;20172;-61
2021/07/02 03:50:48;;;;;;;5.80;4.43;;;19.50;66.00;;;;;;5035416;28;20198;-61
2021/07/02 03:53:14;;;;;;;4.90;4.13;;;19.50;66.00;;;;;;5036059;28;20178;-61
2021/07/02 03:55:39;;;;;;;4.75;4.13;;;19.50;66.00;;;;;;5035612;28;20180;-62
2021/07/02 03:58:05;;;;;;;4.75;4.22;;;19.50;66.00;;;;;;5035780;28;20167;-61
2021/07/02 04:00:30;;;;;;;5.00;4.60;;;19.50;66.00;;;;;;5035835;28;20230;-62
2021/07/02 04:02:56;;;;;;;4.88;4.43;;;19.50;65.90;;;;;;5036011;28;20176;-61
2021/07/02 04:05:22;;;;;;;7.75;4.75;;;19.50;66.00;;;;;;5035550;28;20200;-62
2021/07/02 04:07:50;;;;;;;5.28;4.47;;;19.50;65.90;;;;;;5035535;28;20259;-62
2021/07/02 04:10:15;;;;;;;5.25;4.50;;;19.50;65.90;;;;;;5034934;28;20231;-62
2021/07/02 04:12:41;;;;;;;5.80;4.47;;;19.50;65.90;;;;;;5035472;28;20253;-62
2021/07/02 04:15:07;;;;;;;5.03;4.53;;;19.50;65.90;;;;;;5035804;28;20179;-61
2021/07/02 04:17:32;;;;;;;5.55;5.05;;;19.50;65.90;;;;;;5034741;28;20180;-61
2021/07/02 04:19:58;;;;;;;5.03;4.45;;;19.50;65.90;;;;;;5035671;28;20179;-61
2021/07/02 04:22:23;;;;;;;5.70;4.57;;;19.50;65.80;;;;;;5035468;28;20700;-61
2021/07/02 04:24:52;;;;;;;5.25;4.25;;;19.50;65.80;;;;;;5034560;28;20176;-62
2021/07/02 04:27:18;;;;;;;5.38;4.72;;;19.50;65.90;;;;;;5035448;28;20616;-62
2021/07/02 04:29:43;;;;;;;4.43;4.03;;;19.50;65.80;;;;;;5035188;28;20214;-61
2021/07/02 04:32:09;;;;;;;5.00;4.50;;;19.50;65.80;;;;;;5035153;28;20215;-61
2021/07/02 04:34:34;;;;;;;4.85;4.43;;;19.50;65.80;;;;;;5035140;28;20229;-62
2021/07/02 04:37:00;;;;;;;5.40;4.43;;;19.50;65.80;;;;;;5035154;28;20171;-62
2021/07/02 04:39:25;;;;;;;5.43;4.68;;;19.50;65.90;;;;;;5034763;28;20314;-62
2021/07/02 04:41:51;;;;;;;6.38;4.18;;;19.50;65.80;;;;;;5035094;28;20246;-62
2021/07/02 04:44:16;;;;;;;5.22;4.72;;;19.50;66.00;;;;;;5035198;28;20167;-62
2021/07/02 04:46:42;;;;;;;5.05;4.40;;;19.50;65.80;;;;;;5034259;28;20179;-62
2021/07/02 04:49:08;;;;;;;4.75;4.35;;;19.50;65.80;;;;;;5035204;28;20279;-62
2021/07/02 04:51:33;;;;;;;5.55;4.13;;;19.50;65.80;;;;;;5034869;28;20190;-62
2021/07/02 04:53:58;;;;;;;4.80;4.40;;;19.50;65.80;;;;;;5034327;28;20171;-62
2021/07/02 04:56:24;;;;;;;5.05;4.63;;;19.50;65.80;;;;;;5034933;28;20660;-62
2021/07/02 04:58:54;;;;;;;5.43;4.30;;;19.50;65.80;;;;;;5016917;28;20176;-62
2021/07/02 05:01:21;;;;;;;5.32;4.18;;;19.50;65.70;;;;;;5034426;28;20262;-62
2021/07/02 05:03:46;;;;;;;4.60;4.18;;;19.50;65.70;;;;;;5034731;28;20522;-62
2021/07/02 05:06:12;;;;;;;5.85;4.22;;;19.50;65.70;;;;;;5034763;28;20230;-62
2021/07/02 05:08:38;;;;;;;4.57;4.18;;;19.50;65.70;;;;;;5034733;28;20206;-62
2021/07/02 05:11:04;;;;;;;4.97;4.28;;;19.50;65.60;;;;;;5034634;28;20231;-62
2021/07/02 05:13:31;;;;;;;5.55;5.03;;;19.50;65.70;;;;;;5033965;28;20167;-62
2021/07/02 05:15:56;;;;;;;4.97;4.35;;;19.50;65.70;;;;;;5017010;28;20604;-62
2021/07/02 05:18:22;;;;;;;4.88;4.35;;;19.50;65.70;;;;;;5034702;28;20176;-62
2021/07/02 05:20:47;;;;;;;4.97;4.47;;;19.50;65.70;;;;;;5033475;28;20203;-62
2021/07/02 05:23:13;;;;;;;5.30;4.60;;;19.50;65.60;;;;;;5034428;28;20174;-62
2021/07/02 05:25:39;;;;;;;5.05;4.53;;;19.50;65.60;;;;;;5034259;28;20168;-62
2021/07/02 05:28:04;;;;;;;4.25;3.85;;;19.50;65.60;;;;;;5033791;28;20543;-62
2021/07/02 05:30:30;;;;;;;5.25;4.32;;;19.50;65.60;;;;;;5034082;28;20722;-62
2021/07/02 05:32:55;;;;;;;4.80;4.30;;;19.50;65.50;;;;;;5033955;28;20669;-62
2021/07/02 05:35:21;;;;;;;5.18;4.30;;;19.50;65.50;;;;;;5033730;28;20267;-62
2021/07/02 05:37:47;;;;;;;6.03;4.53;;;19.60;65.50;;;;;;5033796;28;20176;-62
2021/07/02 05:40:13;;;;;;;4.70;4.30;;;19.50;65.40;;;;;;5034038;28;20186;-62
2021/07/02 05:42:39;;;;;;;4.68;4.25;;;19.60;65.50;;;;;;5033425;28;20184;-62
2021/07/02 05:45:05;;;;;;;5.20;4.70;;;19.60;65.40;;;;;;5033890;28;20221;-62
2021/07/02 05:47:47;;;;;;;5.00;4.60;;;19.60;65.40;;;;;;5034187;28;20214;-62
2021/07/02 05:50:13;;;;;;;5.60;4.95;;;19.60;65.30;;;;;;5033327;28;20184;-62
2021/07/02 05:52:44;;;;;;;7.53;4.63;;;19.60;65.20;;;;;;5033773;28;20178;-62
2021/07/02 05:55:10;;;;;;;5.07;4.57;;;19.70;65.20;;;;;;5033747;28;20168;-62
2021/07/02 05:57:36;;;;;;;5.40;4.78;;;19.60;65.20;;;;;;5033085;28;20266;-63
2021/07/02 06:00:03;;;;;;;5.80;4.70;;;19.60;65.30;;;;;;5033808;28;20255;-61
2021/07/02 06:02:28;;;;;;;4.70;4.30;;;19.60;65.20;;;;;;5033224;28;20215;-61
2021/07/02 06:04:54;;;;;;;4.55;4.10;;;19.70;65.20;;;;;;5032294;28;20172;-62
2021/07/02 06:07:19;;;;;;;4.65;4.22;;;19.60;65.10;;;;;;5033861;28;20577;-62
2021/07/02 06:09:45;;;;;;;5.03;4.20;;;19.60;65.10;;;;;;5032479;28;20653;-62
2021/07/02 06:12:10;;;;;;;5.15;4.72;;;19.70;65.20;;;;;;5033375;28;20227;-62
2021/07/02 06:14:36;;;;;;;5.05;4.07;;;19.70;65.10;;;;;;5033197;28;20176;-62
2021/07/02 06:17:01;;;;;;;5.38;4.60;;;19.70;65.20;;;;;;5032827;28;20230;-62
2021/07/02 06:19:27;;;;;;;5.15;4.65;;;19.60;65.30;;;;;;5033579;28;20175;-62
2021/07/02 06:21:52;;;;;;;5.93;5.32;;;19.60;65.30;;;;;;5032980;28;20243;-62
2021/07/02 06:24:18;;;;;;;6.88;5.10;;;19.70;65.30;;;;;;5032809;28;20263;-62
2021/07/02 06:26:43;;;;;;;5.40;4.15;;;19.70;65.20;;;;;;5033140;28;20182;-62
2021/07/02 06:29:09;;;;;;;4.82;4.38;;;19.70;65.10;;;;;;5032982;28;20168;-62
2021/07/02 06:31:34;;;;;;;4.95;4.53;;;19.70;65.10;;;;;;5032597;28;20635;-61
2021/07/02 06:34:00;;;;;;;5.13;4.15;;;19.70;65.10;;;;;;5033094;28;20190;-61
2021/07/02 06:36:25;;;;;;;4.82;4.40;;;19.70;65.00;;;;;;5033087;28;20172;-61
2021/07/02 06:38:51;;;;;;;4.85;4.35;;;19.70;65.00;;;;;;5032595;28;20271;-62
2021/07/02 06:41:16;;;;;;;5.05;4.63;;;19.70;65.00;;;;;;5032991;28;20235;-62
2021/07/02 06:43:42;;;;;;;4.88;4.47;;;19.70;64.90;;;;;;5032522;28;20669;-62
2021/07/02 06:46:07;;;;;;;4.88;4.10;;;19.70;64.90;;;;;;5032641;28;20222;-62
2021/07/02 06:48:33;;;;;;;5.40;4.57;;;19.70;64.80;;;;;;5032554;28;20210;-62
2021/07/02 06:50:58;;;;;;;5.03;4.53;;;19.70;64.80;;;;;;5032984;28;20618;-62
2021/07/02 06:53:24;;;;;;;4.65;4.25;;;19.80;64.80;;;;;;5032452;28;20206;-62
2021/07/02 06:55:51;;;;;;;4.35;3.85;;;19.80;64.70;;;;;;5032862;28;20538;-63
2021/07/02 06:58:17;;;;;;;5.05;4.53;;;19.80;64.70;;;;;;5032777;28;20203;-62
2021/07/02 07:00:42;;;;;;;4.85;4.07;;;19.80;64.60;;;;;;5031963;28;20572;-61
2021/07/02 07:03:08;;;;;;;6.78;4.47;;;19.80;64.60;;;;;;5032667;28;20548;-61
2021/07/02 07:05:34;;;;;;;6.60;4.70;;;19.90;64.60;;;;;;5032488;28;20224;-61
2021/07/02 07:08:02;;;;;;;5.50;4.25;;;19.90;64.50;;;;;;5032379;28;20285;-62
2021/07/02 07:10:27;;;;;;;4.75;4.25;;;19.90;64.40;;;;;;5032688;28;20580;-62
2021/07/02 07:12:53;;;;;;;4.85;4.35;;;20.00;64.40;;;;;;5032227;28;20634;-62
2021/07/02 07:15:19;;;;;;;4.78;4.35;;;20.00;64.40;;;;;;5032242;28;20168;-62
2021/07/02 07:17:44;;;;;;;5.90;4.38;;;19.90;64.30;;;;;;5034727;28;20648;-62
2021/07/02 07:20:10;;;;;;;5.10;4.10;;;19.90;64.40;;;;;;5036207;28;20172;-62
2021/07/02 07:22:36;;;;;;;4.25;3.85;;;20.00;65.40;;;;;;5037030;28;20191;-62
2021/07/02 07:25:02;;;;;;;4.80;4.22;;;20.00;64.50;;;;;;5036865;28;20163;-62
2021/07/02 07:27:27;;;;;;;4.75;4.10;;;20.00;64.50;;;;;;5036046;28;20657;-62
2021/07/02 07:29:53;;;;;;;5.20;4.03;;;20.00;64.50;;;;;;5018707;28;20175;-61
2021/07/02 07:32:18;;;;;;;5.13;4.65;;;20.00;64.30;;;;;;5036209;28;20168;-61
2021/07/02 07:34:55;;;;;;;4.60;4.20;;;20.10;64.40;;;;;;5035893;28;20171;-61
2021/07/02 07:37:22;;;;;;;4.50;4.03;;;20.00;64.50;;;;;;5036771;28;20179;-63
2021/07/02 07:39:48;;;;;;;5.75;4.05;;;20.00;64.70;;;;;;5035977;28;20188;-63
2021/07/02 07:42:14;;;;;;;5.57;4.55;;;20.00;64.90;;;;;;5035789;28;20697;-62
2021/07/02 07:44:39;;;;;;;4.75;4.10;;;20.00;64.90;;;;;;5036001;28;20194;-62
2021/07/02 07:47:05;;;;;;;7.03;4.38;;;20.00;65.00;;;;;;5036048;28;20183;-62
2021/07/02 07:49:30;;;;;;;4.90;4.45;;;20.00;65.00;;;;;;5035545;28;20259;-62
2021/07/02 07:52:00;;;;;;;4.68;4.22;;;19.90;65.10;;;;;;5036373;28;20176;-61
2021/07/02 07:54:27;;;;;;;5.68;4.30;;;20.00;65.20;;;;;;5036264;28;20176;-62
2021/07/02 07:56:53;;;;;;;5.43;4.25;;;19.90;65.20;;;;;;5035357;28;20203;-62
2021/07/02 07:59:20;;;;;;;5.75;4.15;;;19.90;65.30;;;;;;5036145;28;20580;-61
2021/07/02 08:01:45;;;;;;;6.00;5.07;;;19.90;65.40;;;;;;5035682;28;20677;-61
2021/07/02 08:04:13;;;;;;;6.38;4.85;;;19.90;65.40;;;;;;5035543;28;20204;-63
2021/07/02 08:06:39;;;;;;;6.38;4.60;;;19.90;65.30;;;;;;5035728;28;20187;-62
2021/07/02 08:09:07;;;;;;;6.32;5.47;;;20.00;65.30;;;;;;5035837;28;20176;-64
2021/07/02 08:11:32;;;;;;;6.80;6.10;;;20.00;65.00;;;;;;5034889;28;20234;-63
2021/07/02 08:13:59;;;;;;;7.35;6.22;;;20.10;64.80;;;;;;5035893;28;20176;-61
2021/07/02 08:16:25;;;;;;;7.25;5.50;;;20.10;64.70;;;;;;5035004;28;20638;-62
2021/07/02 08:18:50;;;;;;;6.70;5.47;;;20.10;64.60;;;;;;5035599;28;20171;-63
2021/07/02 08:21:16;;;;;;;8.15;6.15;;;20.10;64.50;;;;;;5035481;28;20585;-63
2021/07/02 08:23:41;;;;;;;10.45;6.50;;;20.20;64.40;;;;;;5034618;28;20171;-62
2021/07/02 08:26:07;;;;;;;7.30;6.60;;;20.20;64.40;;;;;;5035603;28;20191;-61
2021/07/02 08:31:17;;;;;;;8.88;6.93;;;20.20;64.20;;;;;;5035011;28;20237;-61
2021/07/02 08:33:42;;;;;;;8.40;7.03;;;20.20;64.30;;;;;;5035266;28;20255;-60
2021/07/02 08:36:08;;;;;;;7.40;6.13;;;20.20;64.30;;;;;;5035293;28;20258;-64
2021/07/02 08:38:33;;;;;;;8.85;6.93;;;20.30;64.20;;;;;;5034438;28;20172;-60
2021/07/02 08:40:59;;;;;;;8.98;6.85;;;20.20;64.40;;;;;;5035117;28;20212;-62
2021/07/02 08:43:24;;;;;;;11.57;7.13;;;20.20;64.50;;;;;;5035246;28;20172;-60
2021/07/02 08:45:50;;;;;;;8.68;7.05;;;20.20;64.50;;;;;;5034603;28;20172;-60
2021/07/02 08:48:18;;;;;;;7.85;6.68;;;20.20;64.40;;;;;;5017422;28;20175;-59
2021/07/02 08:50:44;;;;;;;9.15;7.10;;;20.20;64.40;;;;;;5034912;28;20187;-60
2021/07/02 08:53:09;;;;;;;12.57;8.68;;;20.10;64.20;;;;;;5034652;28;20175;-60
2021/07/02 08:55:35;;;;;;;10.00;9.00;;;20.20;64.30;;;;;;5034735;28;20179;-61
2021/07/02 08:58:00;;;;;;;9.68;7.63;;;20.20;64.00;;;;;;5034764;28;20179;-60
2021/07/02 09:00:28;;;;;;;9.65;7.32;;;20.20;64.00;;;;;;5034644;28;20168;-61
2021/07/02 09:02:54;;;;;;;9.43;7.10;;;20.30;64.80;;;;;;5034779;28;20172;-61
2021/07/02 09:05:33;;;;;;;10.43;7.43;;;20.20;64.00;;;;;;5034794;28;20648;-61
2021/07/02 09:08:00;;;;;;;10.98;7.70;;;20.20;64.10;;;;;;5034651;28;20206;-61
2021/07/02 09:10:33;;;;;;;9.00;7.78;;;20.20;64.20;;;;;;5034779;28;20286;-62
2021/07/02 09:12:58;;;;;;;9.45;7.95;;;20.20;64.20;;;;;;5034326;28;20259;-62
2021/07/02 09:15:24;;;;;;;9.77;7.35;;;20.20;64.20;;;;;;5034798;28;20275;-62
2021/07/02 09:17:49;;;;;;;7.88;6.65;;;20.30;64.20;;;;;;5034199;28;20219;-62
2021/07/02 09:20:43;;;;;;;8.57;7.15;;;20.40;64.20;;;;;;5034012;28;20172;-62
2021/07/02 09:23:13;;;;;;;8.27;7.10;;;20.40;64.20;;;;;;5034838;28;20194;-61
2021/07/02 09:25:47;;;;;;;8.63;7.40;;;20.40;64.00;;;;;;5034002;28;20266;-62
2021/07/02 09:28:17;;;;;;;9.68;7.43;;;20.50;64.10;;;;;;5033952;28;20176;-61
2021/07/02 09:30:44;;;;;;;9.18;7.15;;;20.50;64.00;;;;;;5034067;28;20171;-61
2021/07/02 09:33:14;;;;;;;7.88;6.68;;;20.60;64.00;;;;;;5034088;28;20208;-61
2021/07/02 09:35:48;;;;;;;7.05;6.35;;;20.60;64.00;;;;;;5033688;28;20258;-61
2021/07/02 09:38:16;;;;;;;7.65;6.85;;;20.60;63.90;;;;;;5034270;28;20526;-61
2021/07/02 09:40:42;;;;;;;10.43;6.63;;;20.60;64.00;;;;;;5032410;28;20210;-61
2021/07/02 09:43:18;;;;;;;9.13;7.22;;;20.60;64.20;;;;;;5034095;28;20595;-61
2021/07/02 09:45:50;;;;;;;8.15;7.35;;;20.60;64.40;;;;;;5033532;28;20175;-61
2021/07/02 09:48:17;;;;;;;9.23;8.02;;;20.60;64.40;;;;;;5033661;28;20192;-61
2021/07/02 09:50:52;;;;;;;9.85;8.68;;;20.60;64.50;;;;;;5033916;28;20183;-62
2021/07/02 09:53:24;;;;;;;10.18;9.02;;;20.50;64.40;;;;;;5033770;28;20202;-61
2021/07/02 09:55:51;;;;;;;14.32;9.30;;;20.50;64.50;;;;;;5033220;28;20243;-61
2021/07/02 09:58:18;;;;;;;11.00;9.55;;;20.50;64.40;;;;;;5033761;28;20183;-61
2021/07/02 10:00:46;;;;;;;12.38;9.52;;;20.60;64.50;;;;;;5033347;28;20570;-61
2021/07/02 10:03:12;;;;;;;10.60;9.60;;;20.60;64.40;;;;;;5033437;28;20180;-61
2021/07/02 10:05:43;;;;;;;11.85;9.00;;;20.50;64.40;;;;;;5033531;28;20183;-61
2021/07/02 10:08:13;;;;;;;10.77;9.68;;;20.50;64.60;;;;;;5033424;28;20176;-61
2021/07/02 10:10:38;;;;;;;10.15;9.10;;;20.40;64.70;;;;;;5032587;28;20257;-61
2021/07/02 10:13:04;;;;;;;10.35;9.23;;;20.40;64.80;;;;;;5033716;28;20200;-61
2021/07/02 10:15:29;;;;;;;12.15;9.77;;;20.40;64.90;;;;;;5015832;28;20176;-61
2021/07/02 10:17:57;;;;;;;11.73;10.35;;;20.40;65.20;;;;;;5033028;28;20210;-60
2021/07/02 10:20:23;;;;;;;10.48;9.38;;;20.40;65.50;;;;;;5033257;28;20545;-61
2021/07/02 10:22:48;;;;;;;11.30;10.02;;;20.40;65.60;;;;;;5015286;28;20626;-61
2021/07/02 10:25:17;;;;;;;12.25;9.75;;;20.40;65.60;;;;;;5015235;28;20267;-61
2021/07/02 10:27:51;;;;;;;12.10;9.52;;;20.30;65.60;;;;;;5032987;28;20241;-61
2021/07/02 10:30:17;;;;;;;9.80;8.77;;;20.30;65.60;;;;;;5033095;28;20159;-61
2021/07/02 10:32:43;;;;;;;10.15;9.15;;;20.30;65.50;;;;;;5032973;28;20216;-61
2021/07/02 10:35:12;;;;;;;10.23;9.20;;;20.30;65.40;;;;;;5032900;28;20259;-61
2021/07/02 10:37:40;;;;;;;10.52;8.70;;;20.30;65.50;;;;;;5014877;28;20600;-61
2021/07/02 10:40:34;;;;;;;11.63;8.48;;;20.30;65.50;;;;;;5015640;28;20244;-61
2021/07/02 10:43:10;;;;;;;11.32;8.48;;;20.40;65.40;;;;;;5032808;28;20662;-62
2021/07/02 10:45:59;;;;;;;10.57;8.68;;;20.40;65.40;;;;;;5032112;28;20175;-62
2021/07/02 10:48:47;;;;;;;10.82;8.27;;;20.40;65.50;;;;;;5032786;28;20241;-61
2021/07/02 10:51:35;;;;;;;9.40;7.93;;;20.30;65.40;;;;;;5032388;28;20172;-61
2021/07/02 10:54:15;;;;;;;10.10;8.93;;;20.40;65.50;;;;;;5033038;28;20186;-61
2021/07/02 10:56:56;;;;;;;10.07;8.18;;;20.40;65.60;;;;;;5032708;28;20195;-62
2021/07/02 10:59:37;;;;;;;9.80;8.73;;;20.40;65.40;;;;;;5032593;28;20178;-61
2021/07/02 11:02:12;;;;;;;10.32;8.18;;;20.40;65.40;;;;;;5032865;28;20212;-61
2021/07/02 11:04:50;;;;;;;9.75;8.05;;;20.40;65.50;;;;;;5032246;28;20181;-61
2021/07/02 11:07:19;;;;;;;9.13;7.88;;;20.50;65.60;;;;;;5032277;28;20656;-61
2021/07/02 11:09:45;;;;;;;10.73;8.65;;;20.40;65.50;;;;;;5032309;28;20179;-61
2021/07/02 11:12:11;;;;;;;11.50;8.07;;;20.50;65.50;;;;;;5032108;28;20314;-63
2021/07/02 11:14:55;;;;;;;9.65;8.65;;;20.40;65.40;;;;;;5032156;28;20530;-61
2021/07/02 11:17:28;;;;;;;10.27;8.23;;;20.40;65.70;;;;;;5032498;28;20179;-61
2021/07/02 11:20:23;;;;;;;10.55;7.25;;;20.50;65.70;;;;;;5032060;28;20250;-61
2021/07/02 11:22:58;;;;;;;9.63;7.05;;;20.50;65.60;;;;;;5032453;28;20183;-61
2021/07/02 11:26:00;;;;;;;14.57;8.57;;;20.50;65.60;;;;;;5032308;28;20241;-61
2021/07/02 11:28:35;;;;;;;11.50;8.15;;;20.50;65.40;;;;;;5031167;28;20180;-61
2021/07/02 11:31:03;;;;;;;10.60;8.00;;;20.60;65.60;;;;;;5032665;28;20179;-61
2021/07/02 11:33:28;;;;;;;9.45;7.85;;;20.60;65.60;;;;;;5032211;28;20172;-61
2021/07/02 11:36:00;;;;;;;9.07;7.68;;;20.60;65.60;;;;;;5032162;28;20549;-61
2021/07/02 11:38:26;;;;;;;8.38;7.20;;;20.60;65.70;;;;;;5032488;28;20179;-61
2021/07/02 11:40:58;;;;;;;8.50;7.22;;;20.60;65.70;;;;;;5031828;28;20196;-61
2021/07/02 11:43:31;;;;;;;8.27;7.47;;;20.60;65.80;;;;;;5032473;28;20211;-62
2021/07/02 11:45:57;;;;;;;8.95;7.50;;;20.50;65.70;;;;;;5032349;28;20168;-61
2021/07/02 11:48:25;;;;;;;9.00;7.32;;;20.50;65.70;;;;;;5031894;28;20230;-61
2021/07/02 11:51:07;;;;;;;8.07;7.13;;;20.60;65.70;;;;;;5032314;28;20180;-61
2021/07/02 11:53:50;;;;;;;7.75;6.93;;;20.60;65.70;;;;;;5032042;28;20351;-61
2021/07/02 11:56:24;;;;;;;9.57;8.32;;;20.60;65.60;;;;;;5032183;28;20182;-61
2021/07/02 11:59:03;;;;;;;10.07;7.32;;;20.60;65.50;;;;;;5031857;28;20180;-61
2021/07/02 12:01:37;;;;;;;8.80;7.90;;;20.60;65.60;;;;;;5031800;28;20216;-61
2021/07/02 12:04:04;;;;;;;9.57;7.50;;;20.60;65.50;;;;;;5035310;28;20187;-61
2021/07/02 12:06:31;;;;;;;8.98;6.95;;;20.60;65.50;;;;;;5035759;28;20199;-61
2021/07/02 12:09:05;;;;;;;9.45;7.38;;;20.60;65.40;;;;;;5035401;28;20537;-61
2021/07/02 12:11:38;;;;;;;8.80;7.88;;;20.60;65.40;;;;;;5035395;28;20231;-61
2021/07/02 12:14:05;;;;;;;9.23;7.25;;;20.60;65.40;;;;;;5035676;28;20226;-61
2021/07/02 12:16:45;;;;;;;9.30;7.72;;;20.60;65.40;;;;;;5035059;28;20717;-61
2021/07/02 12:19:15;;;;;;;7.55;6.72;;;20.60;65.50;;;;;;5035527;28;20650;-61
2021/07/02 12:21:41;;;;;;;8.25;6.78;;;20.60;65.50;;;;;;5034949;28;20212;-62
2021/07/02 12:24:07;;;;;;;7.38;6.65;;;20.60;65.60;;;;;;5017152;28;20709;-62
2021/07/02 12:26:35;;;;;;;11.52;7.25;;;20.60;65.70;;;;;;5035373;28;20267;-62
2021/07/02 12:29:13;;;;;;;9.30;7.28;;;20.60;65.70;;;;;;5035675;28;20183;-62
2021/07/02 12:31:53;;;;;;;8.90;6.50;;;20.60;65.70;;;;;;5034851;28;20175;-61
2021/07/02 12:34:23;;;;;;;9.13;6.63;;;20.50;65.60;;;;;;5035172;28;20180;-61
2021/07/02 12:37:00;;;;;;;7.55;6.75;;;20.50;65.70;;;;;;5034875;28;20184;-62
2021/07/02 12:39:32;;;;;;;7.30;6.32;;;20.60;65.80;;;;;;5035556;28;20241;-61
2021/07/02 12:42:01;;;;;;;8.85;6.85;;;20.50;65.80;;;;;;5034968;28;20215;-61
2021/07/02 12:44:27;;;;;;;6.82;6.15;;;20.50;65.80;;;;;;5034829;28;20179;-62
2021/07/02 12:46:53;;;;;;;6.85;6.15;;;20.50;65.90;;;;;;5017310;28;20180;-61
2021/07/02 12:49:31;;;;;;;8.35;6.68;;;20.50;65.90;;;;;;5035166;28;20584;-62
2021/07/02 12:54:53;;;;;;;8.10;7.30;;;20.50;65.90;;;;;;5034945;28;20225;-62
2021/07/02 12:57:29;;;;;;;6.78;6.18;;;20.60;65.80;;;;;;5034996;28;20186;-61
2021/07/02 13:00:10;;;;;;;8.20;5.63;;;20.60;65.70;;;;;;5034668;28;20253;-62
2021/07/02 13:02:45;;;;;;;7.07;6.38;;;20.60;65.90;;;;;;5034517;28;20211;-62
2021/07/02 13:05:12;;;;;;;6.78;6.05;;;20.60;65.70;;;;;;5034731;28;20174;-62
2021/07/02 13:07:47;;;;;;;8.25;6.97;;;20.60;65.80;;;;;;5034814;28;20224;-67
2021/07/02 13:10:13;;;;;;;7.38;6.70;;;20.60;65.80;;;;;;5034505;28;20253;-63
2021/07/02 13:12:39;;;;;;;8.63;6.93;;;20.60;65.90;;;;;;5034128;28;20196;-62
2021/07/02 13:15:13;;;;;;;7.32;6.55;;;20.60;66.00;;;;;;5034782;28;20185;-62
2021/07/02 13:17:39;;;;;;;8.00;6.15;;;20.60;66.90;;;;;;5034001;28;20179;-63
2021/07/02 13:20:06;;;;;;;7.85;7.05;;;20.60;66.00;;;;;;5033989;28;20175;-62
2021/07/02 13:22:32;;;;;;;7.70;6.45;;;20.60;65.80;;;;;;5034073;28;20670;-62